Madison, WI (53714)

9:29 AM CST on January 24, 2017 (GMT -0600)
| | Change Station
Active Advisory: Winter Weather Advisory

Elev -9999 ft 0.00 °N, 0.00 °E | Updated 2 minutes ago

Overcast
Overcast
°F
Feels Like °F
N
Wind Variable Wind from North
Gusts mph

Today
High -- | Low -- °F
--% Chance of Precip.
Yesterday
High -- | Low -- °F
Precip. -- in
Pressure 29.92 in
Visibility 10.0 miles
Clouds Overcast 1200 ft
Dew Point Not available.
Humidity Not available.
Rainfall --
Snow Depth Not available.
7:19 AM 4:59 PM
Waning Crescent, 11% visible
METAR KMSN 241453Z 26003KT 10SM OVC012 02/M01 A2989 RMK AO2 SLP130 T00171006 51009
Pressure 29.92 in
Visibility 10.0 miles
Clouds Overcast 1200 ft
Dew Point Not available.
Humidity Not available.
Rainfall --
Snow Depth Not available.
7:19 AM 4:59 PM
Waning Crescent, 11% visible
METAR KMSN 241453Z 26003KT 10SM OVC012 02/M01 A2989 RMK AO2 SLP130 T00171006 51009

Get Your Daily Forecast Email!

Thanks for signing up!

Be on the lookout for a verification email in your inbox.

You'll start receiving the daily forecast at 8 AM.

×

10-Day Weather Forecast

Almanac

Astronomy

Jan. 24, 2017 Rise Set
Actual Time
Civil Twilight
Nautical Twilight
Astronomical Twilight
Moon
Length of Visible Light
Length of Day
Tomorrow will be .
, % of the Moon is Illuminated

Today's Extremes

State Highs State Lows

Community

WunderPhotos

Upload Photos

1,962,540 photos uploaded!

WunderBlog® & News

Nearby

Air Quality

  Air Quality AQ Index Pollutant
Not available.

Snow Depth

Station Depth Elevation

Earthquake Activity

City Distance Mag. Time & Date
Minimum magnitude displayed is 2.5.

Coastal Water Temperatures

Place Temperature

Stations

Nearby Weather Stations

Station Location Temp. Windchill Dew Point Humidity Wind Precip. Elev Updated Type
                   

Watches & Warnings

Winter Weather Advisory
Issued: 3:34 AM CST Jan. 24, 2017 – National Weather Service

... Winter Weather Advisory in effect from 6 PM this evening to
6 PM CST Wednesday...

The National Weather Service in Milwaukee/Sullivan has issued a
Winter Weather Advisory for snow and a mix of wintry weather
types... which is in effect from 6 PM this evening to 6 PM CST
Wednesday.

* Timing... a mix of rain and snow developing during the late
afternoon and early evening... changing to mainly snow for a time
overnight. Periods of light snow mixed with rain or sleet on
Wednesday.


* Snow accumulations... 3 to 7 inches.

* Winds... east winds 10 to 15 mph turning north 10 to 20 mph on
Wednesday.

* Impacts... hazardous travel from snow covered roads developing
tonight.

Precautionary/preparedness actions...

A Winter Weather Advisory means that periods of snow... sleet... or
freezing rain will cause travel difficulties. Be prepared for
slippery roads and limited visibilities... and use caution while
driving.